Time;durP1;ratioP1;P1;durP2;ratioP2;P2;SDS_P1;SDS_P2;PMS_P1;PMS_P2;Temp;Humidity;BMP_temperature;BMP_pressure;BME280_temperature;BME280_humidity;BME280_pressure;Samples;Min_cycle;Max_cycle;Signal;HPM_P1;HPM_P2
2023/01/19 00:00:16;;;;;;;23.40;10.10;;;;;;;-0.14;97.06;98400.10;109481;1254;68993;-67
2023/01/19 00:03:24;;;;;;;21.90;9.50;;;;;;;-0.13;97.13;98403.23;109591;1254;72612;-68
2023/01/19 00:06:13;;;;;;;22.40;10.40;;;;;;;-0.12;97.39;98405.57;109601;1253;57369;-69
2023/01/19 00:09:01;;;;;;;20.90;9.80;;;;;;;-0.10;97.29;98406.15;109572;1252;60245;-68
2023/01/19 00:11:49;;;;;;;24.10;10.70;;;;;;;-0.08;97.48;98410.73;109591;1253;73019;-68
2023/01/19 00:14:37;;;;;;;24.10;10.30;;;;;;;-0.05;97.48;98415.77;109626;1253;67957;-70
2023/01/19 00:17:26;;;;;;;21.20;9.30;;;;;;;-0.03;97.41;98418.30;109606;1252;73400;-67
2023/01/19 00:20:14;;;;;;;20.60;9.80;;;;;;;-0.02;97.48;98415.08;109571;1253;57409;-69
2023/01/19 00:23:03;;;;;;;19.80;9.60;;;;;;;-0.00;97.49;98419.87;109627;1252;60288;-68
2023/01/19 00:25:51;;;;;;;19.50;8.80;;;;;;;-0.01;97.53;98421.63;108875;1254;1002299;-67
2023/01/19 00:28:39;;;;;;;20.60;9.20;;;;;;;-0.03;97.39;98422.10;109610;1253;69136;-68
2023/01/19 00:31:28;;;;;;;21.60;9.10;;;;;;;-0.04;97.59;98424.62;109580;1253;71107;-70
2023/01/19 00:34:16;;;;;;;21.20;9.50;;;;;;;-0.07;97.55;98427.23;109611;1252;58490;-68
2023/01/19 00:37:06;;;;;;;19.10;9.10;;;;;;;-0.08;97.67;98439.02;109596;1252;61057;-67
2023/01/19 00:39:54;;;;;;;19.60;8.30;;;;;;;-0.09;97.90;98443.58;109598;1253;72736;-69
2023/01/19 00:42:47;;;;;;;18.50;9.20;;;;;;;-0.10;98.00;98442.23;108770;1256;1003033;-67
2023/01/19 00:45:35;;;;;;;21.70;9.40;;;;;;;-0.11;98.02;98453.09;109571;1254;72405;-69
2023/01/19 00:48:23;;;;;;;20.70;9.10;;;;;;;-0.11;97.99;98455.20;109547;1253;57310;-67
2023/01/19 00:51:11;;;;;;;21.40;9.80;;;;;;;-0.09;98.41;98459.64;109526;1253;59456;-68
2023/01/19 00:54:03;;;;;;;21.10;9.00;;;;;;;-0.05;98.51;98464.64;109529;1252;74051;-67
2023/01/19 00:56:51;;;;;;;20.60;9.30;;;;;;;-0.04;98.27;98473.60;109522;1253;66705;-67
2023/01/19 00:59:39;;;;;;;19.50;8.60;;;;;;;-0.02;98.12;98477.65;109549;1253;72642;-69
2023/01/19 01:02:27;;;;;;;20.60;8.80;;;;;;;-0.02;98.29;98477.86;109499;1253;57435;-69
2023/01/19 01:05:16;;;;;;;19.00;8.70;;;;;;;-0.02;98.09;98484.33;109532;1252;59633;-69
2023/01/19 01:08:04;;;;;;;18.40;8.60;;;;;;;-0.02;98.47;98484.99;109579;1252;73842;-67
2023/01/19 01:10:54;;;;;;;21.70;9.00;;;;;;;0.00;98.24;98486.83;109589;1253;68033;-68
2023/01/19 01:13:41;;;;;;;18.90;8.40;;;;;;;0.01;98.07;98489.76;109424;1253;72332;-68
2023/01/19 01:16:29;;;;;;;22.60;8.70;;;;;;;-0.01;98.21;98493.85;109557;1253;57341;-65
2023/01/19 01:19:29;;;;;;;23.80;10.30;;;;;;;-0.04;98.34;98496.48;109526;1257;61467;-68
2023/01/19 01:22:18;;;;;;;21.80;9.50;;;;;;;0.00;98.21;98500.92;109328;1253;73781;-68
2023/01/19 01:25:27;;;;;;;20.30;8.70;;;;;;;0.00;98.00;98506.17;109195;1256;66621;-67
2023/01/19 01:28:15;;;;;;;20.50;8.80;;;;;;;-0.01;97.93;98513.73;109186;1256;72325;-68
2023/01/19 01:31:03;;;;;;;20.20;9.60;;;;;;;-0.02;98.02;98519.70;109167;1256;59633;-67
2023/01/19 01:33:51;;;;;;;18.00;7.40;;;;;;;-0.02;97.73;98525.98;109113;1256;61762;-65
2023/01/19 01:36:39;;;;;;;18.80;7.00;;;;;;;-0.03;97.62;98526.21;109114;1256;72621;-68
2023/01/19 01:39:27;;;;;;;18.90;7.40;;;;;;;-0.07;97.36;98523.69;109197;1256;68909;-67
2023/01/19 01:42:18;;;;;;;19.70;8.00;;;;;;;-0.05;97.46;98528.61;108394;1260;1002444;-68
2023/01/19 01:45:30;;;;;;;20.70;8.30;;;;;;;-0.06;97.46;98535.98;109229;1260;57369;-67
2023/01/19 01:48:26;;;;;;;20.80;8.00;;;;;;;-0.07;97.37;98541.45;109130;1256;60069;-67
2023/01/19 01:51:32;;;;;;;21.20;8.60;;;;;;;-0.07;97.06;98545.61;109110;1256;72679;-67
2023/01/19 01:54:30;;;;;;;21.30;8.10;;;;;;;-0.07;96.88;98547.59;109197;1256;66417;-67
2023/01/19 01:57:18;;;;;;;18.70;7.80;;;;;;;-0.07;96.99;98549.29;109104;1256;70399;-68
2023/01/19 02:00:08;;;;;;;17.30;7.50;;;;;;;-0.06;96.73;98547.65;109129;1256;58432;-69
2023/01/19 02:02:58;;;;;;;19.10;7.90;;;;;;;-0.05;96.43;98554.75;109315;1253;61350;-69
2023/01/19 02:05:48;;;;;;;16.90;7.60;;;;;;;-0.02;96.29;98564.52;109524;1253;72983;-68
2023/01/19 02:15:03;;;;;;;16.80;7.00;;;;;;;-0.06;95.82;98568.60;109567;1256;57315;-65
2023/01/19 02:17:51;;;;;;;16.70;7.70;;;;;;;-0.09;95.76;98575.38;109546;1253;61077;-64
2023/01/19 02:20:44;;;;;;;17.50;7.10;;;;;;;-0.09;95.84;98583.05;109551;1253;72745;-65
2023/01/19 02:23:47;;;;;;;19.70;8.10;;;;;;;-0.10;95.89;98586.10;109542;1253;67663;-64
2023/01/19 02:26:43;;;;;;;16.50;6.60;;;;;;;-0.10;95.71;98584.34;109517;1253;72570;-67
2023/01/19 02:29:32;;;;;;;17.60;6.40;;;;;;;-0.11;95.32;98583.20;109536;1253;59423;-68
2023/01/19 02:32:20;;;;;;;17.40;7.00;;;;;;;-0.12;95.31;98584.29;109512;1252;59969;-65
2023/01/19 02:35:10;;;;;;;16.00;6.70;;;;;;;-0.12;95.23;98583.58;109547;1252;73205;-68
2023/01/19 02:37:58;;;;;;;16.30;6.70;;;;;;;-0.12;95.01;98583.08;109557;1253;67644;-67
2023/01/19 02:40:47;;;;;;;18.50;7.00;;;;;;;-0.13;94.77;98578.58;109526;1253;72968;-67
2023/01/19 02:43:36;;;;;;;19.50;7.80;;;;;;;-0.13;94.67;98584.54;109497;1253;58514;-66
2023/01/19 02:46:24;;;;;;;21.40;7.80;;;;;;;-0.15;94.51;98584.09;109561;1253;59493;-67
2023/01/19 02:49:12;;;;;;;18.30;7.20;;;;;;;-0.15;94.30;98585.55;109543;1252;72855;-68
2023/01/19 02:52:00;;;;;;;17.20;6.80;;;;;;;-0.19;94.00;98580.84;109553;1252;66090;-66
2023/01/19 02:55:07;;;;;;;17.70;6.90;;;;;;;-0.22;93.91;98585.00;109518;1253;72224;-68
2023/01/19 02:58:32;;;;;;;15.00;6.10;;;;;;;-0.27;93.65;98593.00;109196;1253;57317;-68
2023/01/19 03:01:31;;;;;;;18.20;6.70;;;;;;;-0.36;93.64;98595.40;109540;1253;61224;-68
2023/01/19 03:04:26;;;;;;;20.90;7.00;;;;;;;-0.44;93.55;98602.64;109466;1253;73140;-68
2023/01/19 03:07:33;;;;;;;16.50;6.30;;;;;;;-0.51;93.77;98604.96;109545;1253;67026;-67
2023/01/19 03:11:00;;;;;;;14.70;6.00;;;;;;;-0.56;94.02;98603.31;109531;1252;71360;-68
2023/01/19 03:13:52;;;;;;;16.30;6.40;;;;;;;-0.63;94.19;98600.92;108195;1260;1002383;-68
2023/01/19 03:16:47;;;;;;;15.70;5.80;;;;;;;-0.65;94.52;98604.50;108951;1261;59956;-67
2023/01/19 03:19:48;;;;;;;16.40;6.40;;;;;;;-0.66;94.42;98604.92;108920;1260;73303;-67
2023/01/19 03:22:36;;;;;;;15.70;5.50;;;;;;;-0.68;94.42;98611.29;108963;1260;67993;-66
2023/01/19 03:25:25;;;;;;;15.50;5.60;;;;;;;-0.70;94.15;98620.44;108867;1261;70173;-65
2023/01/19 03:28:16;;;;;;;14.80;5.90;;;;;;;-0.71;94.10;98616.86;108967;1260;57407;-67
2023/01/19 03:31:21;;;;;;;18.00;6.40;;;;;;;-0.71;94.03;98622.43;108968;1260;60670;-66
2023/01/19 03:34:14;;;;;;;15.90;6.10;;;;;;;-0.71;93.87;98625.70;108875;1260;71815;-66
2023/01/19 03:37:04;;;;;;;14.50;5.90;;;;;;;-0.70;93.89;98628.61;108935;1260;67992;-68
2023/01/19 03:39:52;;;;;;;15.50;6.30;;;;;;;-0.67;93.69;98637.02;108920;1260;71148;-69
2023/01/19 03:42:42;;;;;;;14.10;5.20;;;;;;;-0.64;93.53;98642.09;108959;1260;57406;-69
2023/01/19 03:45:33;;;;;;;14.40;5.00;;;;;;;-0.62;93.31;98640.55;108933;1261;60606;-68
2023/01/19 03:48:21;;;;;;;14.10;5.00;;;;;;;-0.60;93.07;98645.19;109016;1253;74539;-67
2023/01/19 03:51:10;;;;;;;14.30;5.20;;;;;;;-0.60;92.90;98650.08;109546;1252;66506;-67
2023/01/19 03:54:00;;;;;;;14.80;5.40;;;;;;;-0.61;92.98;98652.38;109535;1252;73386;-66
2023/01/19 03:56:48;;;;;;;15.70;5.80;;;;;;;-0.62;92.74;98658.16;109508;1254;58916;-67
2023/01/19 03:59:36;;;;;;;16.20;6.50;;;;;;;-0.62;92.87;98661.10;108815;1252;1002134;-68
2023/01/19 04:02:24;;;;;;;13.10;5.10;;;;;;;-0.61;92.77;98662.50;109540;1253;72795;-67
2023/01/19 04:05:13;;;;;;;16.80;5.90;;;;;;;-0.62;92.56;98665.85;109535;1254;66620;-67
2023/01/19 04:08:00;;;;;;;12.60;4.40;;;;;;;-0.61;92.75;98665.62;109478;1254;72739;-68
2023/01/19 04:10:48;;;;;;;15.30;5.50;;;;;;;-0.61;92.44;98672.73;109481;1253;58635;-67
2023/01/19 04:13:37;;;;;;;13.40;5.20;;;;;;;-0.62;92.30;98674.39;109518;1253;61294;-69
2023/01/19 04:16:25;;;;;;;13.00;5.00;;;;;;;-0.64;92.28;98674.66;109531;1252;73051;-70
2023/01/19 04:19:13;;;;;;;16.10;5.60;;;;;;;-0.67;92.29;98676.38;109547;1253;67658;-69
2023/01/19 04:22:04;;;;;;;14.20;5.40;;;;;;;-0.69;92.30;98677.17;109557;1254;72684;-66
2023/01/19 04:24:52;;;;;;;15.50;5.40;;;;;;;-0.70;92.39;98676.73;109524;1254;58344;-69
2023/01/19 04:27:40;;;;;;;14.90;5.10;;;;;;;-0.71;92.42;98673.79;109520;1257;60082;-67
2023/01/19 04:30:28;;;;;;;17.00;5.80;;;;;;;-0.70;92.45;98668.48;109484;1256;72822;-68
2023/01/19 04:33:15;;;;;;;15.00;6.00;;;;;;;-0.68;92.41;98672.09;109551;1253;67738;-66
2023/01/19 04:36:04;;;;;;;13.40;4.90;;;;;;;-0.67;92.30;98669.26;109531;1256;72669;-68
2023/01/19 04:38:52;;;;;;;12.20;4.90;;;;;;;-0.68;92.34;98673.10;109549;1253;57231;-66
2023/01/19 04:41:39;;;;;;;11.00;4.30;;;;;;;-0.70;92.24;98669.39;109551;1255;60046;-66
2023/01/19 04:44:28;;;;;;;15.50;5.30;;;;;;;-0.72;92.17;98669.50;109480;1253;71636;-67
2023/01/19 04:47:16;;;;;;;12.20;5.60;;;;;;;-0.74;92.12;98673.10;109559;1254;65583;-67
2023/01/19 04:50:05;;;;;;;19.90;6.20;;;;;;;-0.76;92.24;98677.03;109558;1253;72468;-66
2023/01/19 04:52:53;;;;;;;14.00;5.30;;;;;;;-0.79;92.08;98681.53;109523;1253;57863;-66
2023/01/19 04:55:41;;;;;;;16.10;5.90;;;;;;;-0.82;92.12;98684.83;109542;1254;61044;-69
2023/01/19 04:58:29;;;;;;;14.60;5.60;;;;;;;-0.86;91.84;98691.48;109545;1254;72691;-70
2023/01/19 05:01:18;;;;;;;12.00;4.60;;;;;;;-0.92;91.92;98693.02;109607;1253;67639;-68
2023/01/19 05:04:06;;;;;;;13.10;5.00;;;;;;;-0.99;92.10;98685.39;109565;1253;71562;-69
2023/01/19 05:06:54;;;;;;;16.50;5.20;;;;;;;-1.07;92.14;98685.23;109519;1253;57331;-69
2023/01/19 05:09:42;;;;;;;13.60;5.20;;;;;;;-1.14;92.37;98687.02;109539;1253;60390;-68
2023/01/19 05:12:30;;;;;;;15.80;6.10;;;;;;;-1.22;92.52;98691.45;109536;1254;71758;-68
2023/01/19 05:15:18;;;;;;;14.30;5.60;;;;;;;-1.28;92.69;98690.52;109511;1254;67655;-67
2023/01/19 05:18:06;;;;;;;14.10;5.20;;;;;;;-1.33;93.09;98694.60;109559;1254;73399;-69
2023/01/19 05:20:54;;;;;;;15.90;5.80;;;;;;;-1.36;93.18;98695.81;109531;1254;58966;-68
2023/01/19 05:23:43;;;;;;;16.70;5.40;;;;;;;-1.39;93.18;98699.43;108819;1253;1002159;-69
2023/01/19 05:26:31;;;;;;;13.60;4.80;;;;;;;-1.45;93.35;98691.17;109515;1253;72125;-69
2023/01/19 05:29:19;;;;;;;15.50;5.10;;;;;;;-1.43;93.46;98690.91;108795;1252;1002715;-70
2023/01/19 05:32:07;;;;;;;17.10;5.00;;;;;;;-1.46;93.55;98688.27;109549;1253;72702;-68
2023/01/19 05:34:55;;;;;;;12.60;4.70;;;;;;;-1.48;93.48;98687.00;109534;1254;57274;-69
2023/01/19 05:37:43;;;;;;;14.80;5.80;;;;;;;-1.51;93.37;98686.27;109586;1252;61089;-67
2023/01/19 05:40:31;;;;;;;12.30;5.10;;;;;;;-1.56;93.28;98686.52;109359;1253;71810;-67
2023/01/19 05:43:19;;;;;;;15.00;5.20;;;;;;;-1.60;93.47;98690.06;109492;1254;67888;-68
2023/01/19 05:46:07;;;;;;;15.80;6.00;;;;;;;-1.64;93.51;98696.46;109473;1253;73332;-70
2023/01/19 05:48:55;;;;;;;11.60;5.00;;;;;;;-1.67;93.47;98699.61;109497;1252;58601;-70
2023/01/19 05:51:53;;;;;;;15.50;5.30;;;;;;;-1.70;93.55;98694.52;109391;1255;61346;-69
2023/01/19 05:54:44;;;;;;;15.30;5.00;;;;;;;-1.72;93.61;98700.15;108738;1253;1002157;-70
2023/01/19 05:57:42;;;;;;;13.20;4.60;;;;;;;-1.73;93.62;98703.34;109480;1254;67956;-65
2023/01/19 06:00:30;;;;;;;12.30;4.40;;;;;;;-1.73;93.75;98712.58;109406;1252;70416;-67
2023/01/19 06:03:18;;;;;;;10.80;4.30;;;;;;;-1.77;93.80;98712.08;109452;1253;57323;-69
2023/01/19 06:06:06;;;;;;;12.30;4.70;;;;;;;-1.76;93.83;98729.77;109491;1253;60257;-67
2023/01/19 06:08:54;;;;;;;12.30;4.70;;;;;;;-1.80;93.96;98730.30;109522;1252;73321;-68
2023/01/19 06:11:44;;;;;;;16.10;5.90;;;;;;;-1.84;94.22;98727.36;109505;1253;67647;-69
2023/01/19 06:14:31;;;;;;;18.00;7.30;;;;;;;-1.86;94.43;98724.88;108721;1253;1002295;-65
2023/01/19 06:17:19;;;;;;;17.20;7.30;;;;;;;-1.89;94.76;98717.89;109499;1253;58885;-65
2023/01/19 06:20:08;;;;;;;28.20;8.90;;;;;;;-1.93;94.49;98709.69;109526;1252;61174;-68
2023/01/19 06:22:57;;;;;;;22.60;8.20;;;;;;;-1.91;94.97;98716.08;109533;1253;70842;-69
2023/01/19 06:25:47;;;;;;;22.40;8.60;;;;;;;-1.92;94.58;98717.48;109508;1252;69110;-71
2023/01/19 06:28:35;;;;;;;24.80;9.40;;;;;;;-1.93;94.96;98722.41;108737;1253;1002472;-71
2023/01/19 06:31:23;;;;;;;25.00;10.00;;;;;;;-1.92;94.73;98729.15;109482;1253;57665;-68
2023/01/19 06:34:11;;;;;;;25.80;11.00;;;;;;;-1.94;94.76;98741.92;109490;1253;60376;-67
2023/01/19 06:36:59;;;;;;;25.70;9.80;;;;;;;-1.95;95.04;98753.29;109506;1254;72988;-71
2023/01/19 06:39:46;;;;;;;29.50;11.20;;;;;;;-1.98;95.26;98760.38;109489;1253;68790;-69
2023/01/19 06:42:34;;;;;;;32.20;12.40;;;;;;;-2.00;95.41;98763.98;109474;1254;73674;-70
2023/01/19 06:45:22;;;;;;;29.80;10.80;;;;;;;-2.00;95.42;98761.35;109486;1253;57276;-69
2023/01/19 06:48:12;;;;;;;33.10;11.40;;;;;;;-2.03;95.25;98760.27;109471;1253;60078;-70
2023/01/19 06:51:00;;;;;;;35.10;12.70;;;;;;;-2.04;95.48;98756.15;109504;1254;72791;-69
2023/01/19 06:53:48;;;;;;;30.70;11.80;;;;;;;-2.05;95.39;98753.73;109542;1254;67764;-68
2023/01/19 06:56:35;;;;;;;33.40;12.10;;;;;;;-2.03;95.80;98758.38;109482;1252;72688;-67
2023/01/19 06:59:24;;;;;;;33.30;12.10;;;;;;;-2.01;95.67;98762.80;109479;1254;58647;-67
2023/01/19 07:02:17;;;;;;;28.60;11.60;;;;;;;-1.99;95.76;98769.65;109499;1254;58719;-66
2023/01/19 07:05:15;;;;;;;29.30;10.90;;;;;;;-1.95;96.15;98770.30;109475;1253;74015;-72
2023/01/19 07:08:03;;;;;;;29.40;11.10;;;;;;;-1.92;96.19;98778.16;109510;1253;68204;-70
2023/01/19 07:10:52;;;;;;;35.10;11.70;;;;;;;-1.93;95.61;98776.48;109469;1254;72310;-69
2023/01/19 07:14:00;;;;;;;29.20;11.30;;;;;;;-1.96;95.55;98774.01;109559;1254;57354;-72
2023/01/19 07:16:48;;;;;;;26.70;10.80;;;;;;;-1.96;95.67;98779.57;109500;1253;60442;-71
2023/01/19 07:19:36;;;;;;;23.40;9.70;;;;;;;-1.96;95.78;98785.81;109444;1252;72944;-71
2023/01/19 07:22:24;;;;;;;21.40;9.00;;;;;;;-1.94;96.21;98794.80;109550;1254;68966;-70
2023/01/19 07:25:14;;;;;;;23.30;10.00;;;;;;;-1.92;96.35;98801.30;109488;1252;72891;-72
2023/01/19 07:28:03;;;;;;;31.40;10.20;;;;;;;-1.89;96.14;98808.29;108706;1253;1002275;-69
2023/01/19 07:30:53;;;;;;;21.30;9.40;;;;;;;-1.85;96.29;98816.98;109385;1253;59977;-70
2023/01/19 07:33:41;;;;;;;19.10;8.40;;;;;;;-1.80;96.52;98822.49;108771;1252;1002335;-69
2023/01/19 07:36:29;;;;;;;20.90;8.90;;;;;;;-1.76;96.45;98829.09;109547;1252;66917;-69
2023/01/19 07:39:18;;;;;;;18.90;8.70;;;;;;;-1.74;96.31;98838.88;109493;1251;71478;-72
2023/01/19 07:42:06;;;;;;;18.60;8.10;;;;;;;-1.71;96.31;98849.55;109469;1252;57302;-70
2023/01/19 07:44:57;;;;;;;28.40;9.40;;;;;;;-1.70;96.50;98863.07;109440;1254;59991;-73
2023/01/19 07:47:48;;;;;;;26.20;8.80;;;;;;;-1.68;96.48;98871.13;109528;1252;72250;-72
2023/01/19 07:50:36;;;;;;;20.30;9.30;;;;;;;-1.62;96.14;98880.25;109441;1252;67195;-72
2023/01/19 07:53:24;;;;;;;25.20;10.00;;;;;;;-1.55;95.55;98879.59;109580;1253;72297;-72
2023/01/19 07:56:13;;;;;;;26.40;9.90;;;;;;;-1.47;95.19;98880.23;109576;1253;57397;-72
2023/01/19 07:59:01;;;;;;;24.60;10.40;;;;;;;-1.39;94.58;98887.84;109665;1252;60158;-71
2023/01/19 08:01:49;;;;;;;22.60;9.00;;;;;;;-1.30;94.26;98888.50;109647;1252;70757;-71
2023/01/19 08:04:40;;;;;;;21.40;8.40;;;;;;;-1.26;93.94;98891.59;108853;1252;1002612;-72
2023/01/19 08:07:28;;;;;;;21.20;9.20;;;;;;;-1.20;93.67;98887.88;109484;1252;71387;-73
2023/01/19 08:10:21;;;;;;;25.40;10.50;;;;;;;-1.14;93.63;98890.73;109455;1252;59598;-73
2023/01/19 08:13:09;;;;;;;20.60;8.50;;;;;;;-1.10;93.15;98903.37;109485;1253;60311;-71
2023/01/19 08:15:57;;;;;;;30.90;11.10;;;;;;;-1.08;92.53;98909.17;109487;1252;72923;-72
2023/01/19 08:18:45;;;;;;;28.30;11.00;;;;;;;-1.05;92.50;98914.10;108734;1252;1002227;-72
2023/01/19 08:21:35;;;;;;;25.30;10.60;;;;;;;-1.01;91.76;98917.41;109517;1252;72060;-72
2023/01/19 08:24:27;;;;;;;32.30;12.60;;;;;;;-0.95;91.62;98917.98;109452;1252;57309;-72
2023/01/19 08:27:15;;;;;;;28.20;11.30;;;;;;;-0.89;91.38;98911.62;109513;1252;59089;-71
2023/01/19 08:30:04;;;;;;;30.20;12.20;;;;;;;-0.79;90.92;98908.52;109458;1252;74105;-73
2023/01/19 08:32:56;;;;;;;30.40;12.30;;;;;;;-0.55;90.22;98916.38;109473;1252;67620;-71
2023/01/19 08:35:49;;;;;;;33.00;12.80;;;;;;;-0.21;88.99;98912.88;109351;1253;72439;-74
2023/01/19 08:38:40;;;;;;;29.50;13.50;;;;;;;0.03;87.91;98915.49;109454;1253;58442;-74
2023/01/19 08:41:27;;;;;;;28.10;11.80;;;;;;;0.28;87.28;98912.77;109420;1252;59967;-71
2023/01/19 08:44:15;;;;;;;28.40;11.90;;;;;;;0.88;86.91;98919.80;109502;1252;71731;-71
2023/01/19 08:47:03;;;;;;;26.70;11.60;;;;;;;1.05;84.95;98922.34;109478;1252;66778;-73
2023/01/19 08:49:51;;;;;;;31.30;12.00;;;;;;;1.28;83.29;98932.41;109427;1252;71403;-73
2023/01/19 08:52:39;;;;;;;30.80;12.10;;;;;;;1.32;82.09;98931.11;109433;1252;58477;-73
2023/01/19 08:55:29;;;;;;;28.00;13.70;;;;;;;1.41;81.85;98927.30;109448;1252;59920;-73
2023/01/19 08:58:17;;;;;;;28.70;12.50;;;;;;;1.49;80.67;98931.38;109455;1252;73138;-73
2023/01/19 09:01:07;;;;;;;29.30;12.30;;;;;;;1.94;80.03;98927.13;109393;1252;66434;-73
2023/01/19 09:03:55;;;;;;;34.90;13.60;;;;;;;2.89;78.07;98925.98;109388;1253;71478;-73
2023/01/19 09:06:43;;;;;;;34.30;14.90;;;;;;;4.23;75.58;98927.64;109486;1252;57425;-68
2023/01/19 09:09:31;;;;;;;33.60;14.60;;;;;;;5.65;71.93;98924.92;109464;1252;59983;-69
2023/01/19 09:12:19;;;;;;;34.10;14.30;;;;;;;6.41;68.38;98917.42;109461;1252;74172;-69
2023/01/19 09:15:09;;;;;;;31.70;13.90;;;;;;;7.81;65.37;98916.50;109509;1252;67661;-70
2023/01/19 09:17:57;;;;;;;31.90;14.70;;;;;;;8.83;58.57;98913.23;109454;1252;71231;-70
2023/01/19 09:20:49;;;;;;;31.50;14.80;;;;;;;9.68;54.36;98911.61;109402;1252;58681;-68
2023/01/19 09:23:37;;;;;;;32.30;15.20;;;;;;;10.08;53.55;98902.39;109428;1252;61011;-69
2023/01/19 09:26:25;;;;;;;27.40;12.90;;;;;;;10.15;50.17;98898.09;109458;1252;71751;-66
2023/01/19 09:29:13;;;;;;;27.30;14.00;;;;;;;9.80;48.13;98901.44;109405;1252;67144;-68
2023/01/19 09:32:01;;;;;;;33.50;14.80;;;;;;;9.66;49.72;98908.27;109469;1252;73679;-68
2023/01/19 09:34:49;;;;;;;23.00;12.80;;;;;;;9.46;50.03;98911.86;109468;1252;57284;-73
2023/01/19 09:37:38;;;;;;;29.60;14.50;;;;;;;9.79;49.44;98908.63;109447;1251;59957;-71
2023/01/19 09:40:27;;;;;;;30.20;14.00;;;;;;;10.31;47.85;98910.77;109571;1252;72879;-72
2023/01/19 09:43:38;;;;;;;28.50;15.20;;;;;;;10.95;47.73;98906.96;109534;1253;67555;-71
2023/01/19 09:46:38;;;;;;;28.90;14.30;;;;;;;11.58;45.48;98908.73;109440;1252;72515;-70
2023/01/19 09:49:39;;;;;;;30.40;14.20;;;;;;;12.66;42.78;98901.86;109496;1252;57296;-71
2023/01/19 09:52:31;;;;;;;25.60;14.50;;;;;;;13.74;40.15;98896.25;109518;1253;58809;-73
2023/01/19 09:55:25;;;;;;;28.10;14.50;;;;;;;14.30;36.79;98888.27;109415;1252;74098;-72
2023/01/19 09:58:17;;;;;;;28.30;14.40;;;;;;;14.92;36.91;98890.67;109512;1252;68247;-73
2023/01/19 10:01:33;;;;;;;28.70;15.30;;;;;;;15.55;35.94;98888.36;109480;1253;72363;-72
2023/01/19 10:05:11;;;;;;;27.40;14.80;;;;;;;16.15;34.02;98890.79;109511;1252;57671;-74
2023/01/19 10:08:51;;;;;;;25.60;14.00;;;;;;;16.76;32.41;98893.55;109560;1252;61269;-72
2023/01/19 10:12:07;;;;;;;26.00;12.90;;;;;;;17.17;31.57;98892.67;109028;1257;71475;-72
2023/01/19 10:15:20;;;;;;;23.40;13.50;;;;;;;17.36;30.49;98900.52;109030;1257;65817;-72
2023/01/19 10:18:18;;;;;;;26.70;15.10;;;;;;;17.15;29.42;98894.45;109125;1257;72473;-73
2023/01/19 10:21:14;;;;;;;23.00;13.50;;;;;;;16.78;30.31;98891.02;109031;1257;57701;-75
2023/01/19 10:24:26;;;;;;;26.10;14.50;;;;;;;17.08;30.99;98892.11;109026;1257;58222;-73
2023/01/19 10:27:27;;;;;;;23.90;12.60;;;;;;;17.42;29.35;98890.48;109101;1257;72047;-73
2023/01/19 10:30:23;;;;;;;23.70;11.40;;;;;;;17.71;29.30;98892.59;109048;1257;67916;-74
2023/01/19 10:33:13;;;;;;;22.60;11.70;;;;;;;17.88;28.24;98890.80;109038;1257;73713;-74
2023/01/19 10:36:27;;;;;;;18.80;10.30;;;;;;;17.73;28.38;98885.20;109075;1257;58037;-73
2023/01/19 10:39:17;;;;;;;18.40;8.60;;;;;;;18.01;28.00;98886.27;109088;1257;60085;-73
2023/01/19 10:42:14;;;;;;;15.10;7.60;;;;;;;18.05;27.10;98885.60;108978;1258;72801;-72
2023/01/19 10:45:03;;;;;;;14.50;7.70;;;;;;;18.14;27.31;98886.00;108992;1258;66373;-74
2023/01/19 10:47:53;;;;;;;17.30;8.50;;;;;;;18.53;27.47;98875.33;109081;1252;72726;-71
2023/01/19 10:50:41;;;;;;;13.40;6.90;;;;;;;18.52;26.66;98877.21;109496;1252;59257;-71
2023/01/19 10:53:30;;;;;;;15.50;7.10;;;;;;;18.38;26.70;98878.17;109480;1252;61960;-73
2023/01/19 10:56:33;;;;;;;16.80;7.80;;;;;;;18.65;27.69;98874.71;109509;1252;73811;-75
2023/01/19 10:59:45;;;;;;;14.00;7.00;;;;;;;18.91;26.77;98872.51;109478;1252;68969;-72
2023/01/19 11:02:33;;;;;;;14.30;7.00;;;;;;;18.86;26.44;98867.42;109458;1252;73684;-72
2023/01/19 11:05:29;;;;;;;15.90;6.90;;;;;;;18.57;26.94;98869.73;109459;1252;57978;-71
2023/01/19 11:08:29;;;;;;;12.70;5.70;;;;;;;18.33;27.11;98866.38;109473;1252;60033;-74
2023/01/19 11:11:23;;;;;;;14.90;6.70;;;;;;;18.36;27.15;98870.13;109507;1252;71847;-73
2023/01/19 11:14:23;;;;;;;12.80;6.20;;;;;;;18.32;27.25;98867.80;109496;1252;67914;-72
2023/01/19 11:17:22;;;;;;;13.20;6.40;;;;;;;17.74;27.19;98869.23;109494;1252;72719;-73
2023/01/19 11:20:21;;;;;;;13.70;6.00;;;;;;;17.12;27.89;98871.03;109489;1253;58960;-72
2023/01/19 11:23:22;;;;;;;13.90;6.10;;;;;;;17.07;28.61;98864.13;109462;1252;60157;-74
2023/01/19 11:26:33;;;;;;;11.30;4.70;;;;;;;17.10;28.12;98867.16;109489;1252;71700;-74
2023/01/19 11:29:26;;;;;;;12.30;5.00;;;;;;;16.61;28.28;98861.17;109384;1253;65441;-73
2023/01/19 11:32:21;;;;;;;10.50;4.80;;;;;;;16.34;28.60;98860.04;109530;1252;72447;-73
2023/01/19 11:35:39;;;;;;;10.80;4.20;;;;;;;16.06;29.11;98866.45;109543;1252;57729;-74
2023/01/19 11:38:27;;;;;;;11.50;4.70;;;;;;;15.88;29.95;98861.77;109432;1253;61220;-73
2023/01/19 11:41:19;;;;;;;12.10;5.70;;;;;;;16.07;30.35;98861.36;109402;1252;73174;-72
2023/01/19 11:44:42;;;;;;;12.60;5.40;;;;;;;16.16;29.89;98866.39;109578;1252;67464;-72
2023/01/19 11:47:38;;;;;;;11.50;5.10;;;;;;;16.00;30.35;98863.08;109486;1251;73288;-73
2023/01/19 11:50:40;;;;;;;13.70;5.20;;;;;;;15.86;30.41;98864.63;109405;1251;57389;-77
2023/01/19 11:53:33;;;;;;;13.50;6.20;;;;;;;15.07;30.59;98874.84;109457;1252;60019;-74
2023/01/19 11:56:28;;;;;;;13.10;6.00;;;;;;;14.27;31.87;98873.95;109452;1253;72799;-72
2023/01/19 11:59:17;;;;;;;11.80;5.10;;;;;;;13.79;33.08;98877.91;109472;1252;68707;-73
2023/01/19 12:02:42;;;;;;;12.30;5.20;;;;;;;13.01;34.09;98881.61;109499;1252;73692;-73
2023/01/19 12:05:34;;;;;;;12.10;4.60;;;;;;;12.32;35.54;98883.08;109509;1252;57699;-71
2023/01/19 12:08:29;;;;;;;10.10;5.00;;;;;;;11.91;36.75;98879.46;109521;1253;59248;-72
2023/01/19 12:11:30;;;;;;;11.60;5.40;;;;;;;11.46;37.53;98885.05;109338;1252;74145;-76
2023/01/19 12:15:02;;;;;;;11.30;5.40;;;;;;;11.36;38.16;98879.45;109465;1252;68594;-70
2023/01/19 12:17:56;;;;;;;12.00;5.60;;;;;;;11.21;38.53;98878.67;109427;1252;72643;-70
2023/01/19 12:20:54;;;;;;;10.70;5.30;;;;;;;10.78;39.29;98876.42;109408;1252;58654;-74
2023/01/19 12:24:15;;;;;;;15.10;6.60;;;;;;;10.32;40.29;98873.69;109550;1252;60164;-70
2023/01/19 12:27:26;;;;;;;13.50;5.70;;;;;;;10.25;40.88;98871.77;108723;1252;1002085;-72
2023/01/19 12:30:27;;;;;;;12.80;5.70;;;;;;;10.05;41.38;98873.98;109400;1252;69040;-75
2023/01/19 12:33:33;;;;;;;11.90;4.70;;;;;;;9.83;41.98;98869.10;109512;1252;71956;-71
2023/01/19 12:36:34;;;;;;;11.90;4.50;;;;;;;9.45;42.46;98877.74;109461;1252;57738;-72
2023/01/19 12:39:24;;;;;;;11.90;4.20;;;;;;;9.24;42.86;98875.38;109519;1253;58691;-73
2023/01/19 12:42:16;;;;;;;10.30;3.60;;;;;;;9.19;43.19;98879.05;109451;1252;72906;-74
2023/01/19 12:45:19;;;;;;;12.20;4.20;;;;;;;9.00;43.81;98882.92;109453;1252;67809;-75
2023/01/19 12:48:24;;;;;;;11.50;3.70;;;;;;;8.85;44.08;98872.76;109454;1252;72744;-72
2023/01/19 12:51:23;;;;;;;9.60;3.60;;;;;;;8.47;45.28;98875.06;109520;1253;59003;-70
2023/01/19 12:54:31;;;;;;;9.60;3.30;;;;;;;8.09;46.02;98876.52;109551;1252;60192;-71
2023/01/19 12:58:01;;;;;;;8.70;3.10;;;;;;;7.33;47.65;98878.64;109440;1252;72832;-71
2023/01/19 13:01:15;;;;;;;8.70;2.90;;;;;;;6.59;49.47;98883.61;109553;1252;66360;-72
2023/01/19 13:04:26;;;;;;;10.60;3.20;;;;;;;5.87;51.87;98888.09;109522;1251;73568;-74
2023/01/19 13:07:16;;;;;;;8.80;3.00;;;;;;;5.29;54.21;98896.87;109511;1251;57334;-75
2023/01/19 13:10:54;;;;;;;8.50;3.30;;;;;;;4.92;55.61;98898.66;109429;1252;61473;-72
2023/01/19 13:14:04;;;;;;;10.20;3.00;;;;;;;4.49;57.05;98894.92;109521;1252;73713;-72
2023/01/19 13:16:59;;;;;;;8.40;3.60;;;;;;;4.23;58.26;98889.91;109614;1252;69282;-73
2023/01/19 13:19:56;;;;;;;9.60;3.80;;;;;;;4.03;60.22;98896.71;109431;1252;72219;-75